createdAt,value
2017-06-09T00:00:04.132Z,52.37
2017-06-09T00:01:05.788Z,52.47
2017-06-09T00:02:07.435Z,52.08
2017-06-09T00:03:09.102Z,51.79
2017-06-09T00:04:10.748Z,51.79
2017-06-09T00:05:12.479Z,51.60
2017-06-09T00:06:14.130Z,51.98
2017-06-09T00:07:15.831Z,52.18
2017-06-09T00:08:17.507Z,52.18
2017-06-09T00:09:19.157Z,52.27
2017-06-09T00:10:20.894Z,51.79
2017-06-09T00:11:22.511Z,51.70
2017-06-09T00:12:24.097Z,51.79
2017-06-09T00:13:25.777Z,51.79
2017-06-09T00:14:27.387Z,51.60
2017-06-09T00:15:29.155Z,51.79
2017-06-09T00:16:30.822Z,52.47
2017-06-09T00:17:32.461Z,52.37
2017-06-09T00:18:34.131Z,52.08
2017-06-09T00:19:35.746Z,52.18
2017-06-09T00:20:37.397Z,52.08
2017-06-09T00:21:39.111Z,51.79
2017-06-09T00:22:40.746Z,52.85
2017-06-09T00:23:42.354Z,52.47
2017-06-09T00:24:44.049Z,51.79
2017-06-09T00:25:45.686Z,51.70
2017-06-09T00:26:47.315Z,52.27
2017-06-09T00:27:48.941Z,52.27
2017-06-09T00:28:50.580Z,52.18
2017-06-09T00:29:52.251Z,52.08
2017-06-09T00:30:53.861Z,51.89
2017-06-09T00:32:34.963Z,52.54
2017-06-09T00:33:36.626Z,52.66
2017-06-09T00:34:38.303Z,52.54
2017-06-09T00:35:39.937Z,52.15
2017-06-09T00:36:41.548Z,52.73
2017-06-09T00:37:43.310Z,52.63
2017-06-09T00:38:44.984Z,52.44
2017-06-09T00:39:46.615Z,52.95
2017-06-09T00:40:48.217Z,53.50
2017-06-09T00:41:49.823Z,52.66
2017-06-09T00:42:51.498Z,52.44
2017-06-09T00:43:53.141Z,52.63
2017-06-09T00:44:54.761Z,53.40
2017-06-09T00:45:56.373Z,53.11
2017-06-09T00:46:58.009Z,52.66
2017-06-09T00:47:59.653Z,52.63
2017-06-09T00:49:01.253Z,52.25
2017-06-09T00:50:02.914Z,52.63
2017-06-09T00:51:04.612Z,52.92
2017-06-09T00:52:06.280Z,53.11
2017-06-09T00:53:07.999Z,52.54
2017-06-09T00:54:09.651Z,52.83
2017-06-09T00:55:11.322Z,52.83
2017-06-09T00:56:12.966Z,52.34
2017-06-09T00:57:14.597Z,52.54
2017-06-09T00:58:16.256Z,52.63
2017-06-09T00:59:18.010Z,52.83
2017-06-09T01:00:19.659Z,53.59
2017-06-09T01:01:21.308Z,53.31
2017-06-09T01:02:22.951Z,53.40
2017-06-09T01:03:24.558Z,53.59
2017-06-09T01:04:26.241Z,53.40
2017-06-09T01:05:27.878Z,53.40
2017-06-09T01:06:29.530Z,53.21
2017-06-09T01:07:31.130Z,53.40
2017-06-09T01:08:32.766Z,53.98
2017-06-09T01:09:34.417Z,53.98
2017-06-09T01:10:36.051Z,53.40
2017-06-09T01:11:37.679Z,53.69
2017-06-09T01:12:39.373Z,53.88
2017-06-09T01:13:40.981Z,54.17
2017-06-09T01:14:42.656Z,53.59
2017-06-09T01:15:44.289Z,53.98
2017-06-09T01:16:45.910Z,54.08
2017-06-09T01:17:47.572Z,53.98
2017-06-09T01:18:49.206Z,54.08
2017-06-09T01:19:50.888Z,54.08
2017-06-09T01:20:52.557Z,54.56
2017-06-09T01:21:54.262Z,53.69
2017-06-09T01:22:55.973Z,53.88
2017-06-09T01:23:57.662Z,54.94
2017-06-09T01:25:38.822Z,54.56
2017-06-09T01:26:40.498Z,54.94
2017-06-09T01:27:42.129Z,54.36
2017-06-09T01:28:43.819Z,54.36
2017-06-09T01:29:45.532Z,53.98
2017-06-09T01:30:47.234Z,53.88
2017-06-09T01:31:48.912Z,54.27
2017-06-09T01:32:50.603Z,54.85
2017-06-09T01:33:52.269Z,53.98
2017-06-09T01:34:53.955Z,54.08
2017-06-09T01:35:55.650Z,54.56
2017-06-09T01:36:57.303Z,54.53
2017-06-09T01:37:58.984Z,54.46
2017-06-09T01:39:00.680Z,54.34
2017-06-09T01:40:02.387Z,54.08
2017-06-09T01:41:04.073Z,53.88
2017-06-09T01:42:05.754Z,55.33
2017-06-09T01:43:07.410Z,56.00
2017-06-09T01:44:09.129Z,54.85
2017-06-09T01:45:10.758Z,54.17
2017-06-09T01:46:12.500Z,54.14
2017-06-09T01:47:14.108Z,53.98
2017-06-09T01:48:15.803Z,54.05
2017-06-09T01:49:17.400Z,55.20
2017-06-09T01:50:19.047Z,55.33
2017-06-09T01:51:21.658Z,55.23
2017-06-09T01:52:23.347Z,54.56
2017-06-09T01:53:24.992Z,53.96
2017-06-09T01:54:26.659Z,53.96
2017-06-09T01:55:28.334Z,54.14
2017-06-09T01:56:30.062Z,54.63
2017-06-09T01:57:31.729Z,54.91
2017-06-09T01:58:33.364Z,54.05
2017-06-09T01:59:34.976Z,53.96
2017-06-09T02:00:36.663Z,54.43
2017-06-09T02:01:38.376Z,54.24
2017-06-09T02:02:40.010Z,54.14
2017-06-09T02:03:41.662Z,54.63
2017-06-09T02:04:43.244Z,55.01
2017-06-09T02:05:44.840Z,55.01
2017-06-09T02:06:46.527Z,54.05
2017-06-09T02:07:48.205Z,54.63
2017-06-09T02:08:49.838Z,54.14
2017-06-09T02:09:51.451Z,55.01
2017-06-09T02:10:53.112Z,54.05
2017-06-09T02:11:54.725Z,54.05
2017-06-09T02:12:56.382Z,54.34
2017-06-09T02:13:58.013Z,54.43
2017-06-09T02:14:59.637Z,53.96
2017-06-09T02:16:01.270Z,54.53
2017-06-09T02:17:42.474Z,54.34
2017-06-09T02:18:44.082Z,54.53
2017-06-09T02:19:45.713Z,54.34
2017-06-09T02:20:47.290Z,54.91
2017-06-09T02:21:48.905Z,54.91
2017-06-09T02:22:50.622Z,54.43
2017-06-09T02:23:52.294Z,54.53
2017-06-09T02:24:53.894Z,54.43
2017-06-09T02:25:55.507Z,54.63
2017-06-09T02:26:57.148Z,55.01
2017-06-09T02:27:58.813Z,54.91
2017-06-09T02:29:00.402Z,54.91
2017-06-09T02:30:02.065Z,55.01
2017-06-09T02:31:03.711Z,55.49
2017-06-09T02:32:44.885Z,54.63
2017-06-09T02:34:26.565Z,54.24
2017-06-09T02:35:28.157Z,54.53
2017-06-09T02:36:29.786Z,55.01
2017-06-09T02:37:31.404Z,54.99
2017-06-09T02:38:33.025Z,55.30
2017-06-09T02:39:34.753Z,54.91
2017-06-09T02:40:36.401Z,54.89
2017-06-09T02:41:38.049Z,54.99
2017-06-09T02:42:39.649Z,54.99
2017-06-09T02:43:41.259Z,55.18
2017-06-09T02:44:42.956Z,55.01
2017-06-09T02:45:44.585Z,54.69
2017-06-09T02:46:46.233Z,54.72
2017-06-09T02:47:47.891Z,54.82
2017-06-09T02:48:49.529Z,55.11
2017-06-09T02:49:51.243Z,55.98
2017-06-09T02:50:52.900Z,55.20
2017-06-09T02:51:54.538Z,55.01
2017-06-09T02:52:56.156Z,55.01
2017-06-09T02:53:57.781Z,54.91
2017-06-09T02:54:59.649Z,56.65
2017-06-09T02:56:01.266Z,55.30
2017-06-09T02:57:02.928Z,56.26
2017-06-09T02:58:04.593Z,55.20
2017-06-09T02:59:06.293Z,54.63
2017-06-09T03:00:07.966Z,55.37
2017-06-09T03:01:09.655Z,55.66
2017-06-09T03:02:11.310Z,55.40
2017-06-09T03:03:12.955Z,54.82
2017-06-09T03:04:14.667Z,55.11
2017-06-09T03:05:16.381Z,54.79
2017-06-09T03:06:18.138Z,54.79
2017-06-09T03:07:19.834Z,55.08
2017-06-09T03:09:01.018Z,55.27
2017-06-09T03:10:42.700Z,55.08
2017-06-09T03:11:44.427Z,55.18
2017-06-09T03:12:46.051Z,55.66
2017-06-09T03:13:47.735Z,55.18
2017-06-09T03:14:49.479Z,55.56
2017-06-09T03:15:54.362Z,55.18
2017-06-09T03:16:56.012Z,54.69
2017-06-09T03:17:57.623Z,55.56
2017-06-09T03:18:59.266Z,55.08
2017-06-09T03:20:00.933Z,55.08
2017-06-09T03:21:02.623Z,55.18
2017-06-09T03:22:04.368Z,55.37
2017-06-09T03:23:06.010Z,55.18
2017-06-09T03:24:07.719Z,54.89
2017-06-09T03:25:09.400Z,55.46
2017-06-09T03:26:11.101Z,54.89
2017-06-09T03:27:12.843Z,55.08
2017-06-09T03:28:14.575Z,54.99
2017-06-09T03:29:16.230Z,55.18
2017-06-09T03:30:17.865Z,55.18
2017-06-09T03:31:19.500Z,55.08
2017-06-09T03:32:21.234Z,54.89
2017-06-09T03:33:22.837Z,55.08
2017-06-09T03:34:24.474Z,55.37
2017-06-09T03:35:26.100Z,55.37
2017-06-09T03:36:27.733Z,54.89
2017-06-09T03:37:29.388Z,55.18
2017-06-09T03:38:30.991Z,55.08
2017-06-09T03:39:32.580Z,55.18
2017-06-09T03:40:34.251Z,54.60
2017-06-09T03:41:35.885Z,54.79
2017-06-09T03:42:37.521Z,54.79
2017-06-09T03:43:39.113Z,55.37
2017-06-09T03:44:40.695Z,54.99
2017-06-09T03:45:42.339Z,55.27
2017-06-09T03:46:43.938Z,55.18
2017-06-09T03:47:45.653Z,55.46
2017-06-09T03:48:47.263Z,54.99
2017-06-09T03:49:48.905Z,55.08
2017-06-09T03:50:50.629Z,55.18
2017-06-09T03:51:52.268Z,54.89
2017-06-09T03:52:53.871Z,55.08
2017-06-09T03:53:55.487Z,54.79
2017-06-09T03:54:57.102Z,55.37
2017-06-09T03:55:58.810Z,55.08
2017-06-09T03:57:00.448Z,54.99
2017-06-09T03:58:02.047Z,54.89
2017-06-09T03:59:03.646Z,54.89
2017-06-09T04:00:05.268Z,55.66
2017-06-09T04:01:06.943Z,55.76
2017-06-09T04:02:48.213Z,55.08
2017-06-09T04:03:49.884Z,54.89
2017-06-09T04:04:51.538Z,54.99
2017-06-09T04:05:53.159Z,55.18
2017-06-09T04:06:54.820Z,55.18
2017-06-09T04:07:56.510Z,54.89
2017-06-09T04:08:58.167Z,55.08
2017-06-09T04:09:59.805Z,54.79
2017-06-09T04:11:01.409Z,55.18
2017-06-09T04:12:03.079Z,54.69
2017-06-09T04:13:04.748Z,54.99
2017-06-09T04:14:06.363Z,54.79
2017-06-09T04:15:07.996Z,55.11
2017-06-09T04:16:09.621Z,54.05
2017-06-09T04:17:11.348Z,54.24
2017-06-09T04:18:12.970Z,54.34
2017-06-09T04:19:14.605Z,54.43
2017-06-09T04:20:16.219Z,53.96
2017-06-09T04:21:17.886Z,54.91
2017-06-09T04:22:19.611Z,53.96
2017-06-09T04:23:21.262Z,54.53
2017-06-09T04:24:22.891Z,54.14
2017-06-09T04:25:24.557Z,54.14
2017-06-09T04:26:26.151Z,54.14
2017-06-09T04:27:27.838Z,54.05
2017-06-09T04:28:29.463Z,54.14
2017-06-09T04:29:31.146Z,53.78
2017-06-09T04:30:32.765Z,53.98
2017-06-09T04:31:34.415Z,54.27
2017-06-09T04:32:36.109Z,53.69
2017-06-09T04:33:37.826Z,53.50
2017-06-09T04:34:39.526Z,52.83
2017-06-09T04:35:41.230Z,53.40
2017-06-09T04:36:42.953Z,52.44
2017-06-09T04:37:44.753Z,52.34
2017-06-09T04:38:46.457Z,51.60
2017-06-09T04:39:48.205Z,52.18
2017-06-09T04:40:49.852Z,52.37
2017-06-09T04:41:51.513Z,52.75
2017-06-09T04:42:53.200Z,51.79
2017-06-09T04:43:54.848Z,51.98
2017-06-09T04:44:56.530Z,51.79
2017-06-09T04:45:58.210Z,52.69
2017-06-09T04:46:59.991Z,52.49
2017-06-09T04:48:01.712Z,51.62
2017-06-09T04:49:03.406Z,51.53
2017-06-09T04:50:05.589Z,52.11
2017-06-09T04:51:07.234Z,52.49
2017-06-09T04:52:09.655Z,52.11
2017-06-09T04:53:11.852Z,51.53
2017-06-09T04:54:55.341Z,51.62
2017-06-09T04:55:57.003Z,51.82
2017-06-09T04:57:00.444Z,52.40
2017-06-09T04:58:02.457Z,51.92
2017-06-09T04:59:04.079Z,51.34
2017-06-09T05:00:05.753Z,51.53
2017-06-09T05:01:07.470Z,50.76
2017-06-09T05:02:09.145Z,51.92
2017-06-09T05:03:10.789Z,50.66
2017-06-09T05:04:12.461Z,51.24
2017-06-09T05:05:14.113Z,51.62
2017-06-09T05:06:15.821Z,51.14
2017-06-09T05:07:17.475Z,50.95
2017-06-09T05:08:19.148Z,50.27
2017-06-09T05:09:20.781Z,50.76
2017-06-09T05:10:22.411Z,50.85
2017-06-09T05:11:24.097Z,50.76
2017-06-09T05:12:25.729Z,49.99
2017-06-09T05:13:27.479Z,50.76
2017-06-09T05:14:29.140Z,50.76
2017-06-09T05:15:30.741Z,50.76
2017-06-09T05:16:32.423Z,51.14
2017-06-09T05:17:34.086Z,51.24
2017-06-09T05:18:35.794Z,50.09
2017-06-09T05:19:37.452Z,50.47
2017-06-09T05:20:39.100Z,50.57
2017-06-09T05:21:40.750Z,50.49
2017-06-09T05:22:42.555Z,50.98
2017-06-09T05:23:44.205Z,50.40
2017-06-09T05:24:45.826Z,50.21
2017-06-09T05:25:47.578Z,49.99
2017-06-09T05:26:49.238Z,49.82
2017-06-09T05:27:50.859Z,50.88
2017-06-09T05:28:52.584Z,50.69
2017-06-09T05:29:54.154Z,49.63
2017-06-09T05:30:55.790Z,49.34
2017-06-09T05:31:57.786Z,49.63
2017-06-09T05:32:59.379Z,49.63
2017-06-09T05:34:01.065Z,49.73
2017-06-09T05:35:02.707Z,48.66
2017-06-09T05:36:04.312Z,48.86
2017-06-09T05:37:05.958Z,49.24
2017-06-09T05:38:07.543Z,49.82
2017-06-09T05:39:09.352Z,49.43
2017-06-09T05:40:10.996Z,49.43
2017-06-09T05:41:12.653Z,49.53
2017-06-09T05:42:14.288Z,48.95
2017-06-09T05:43:15.953Z,49.43
2017-06-09T05:44:17.636Z,48.86
2017-06-09T05:45:19.255Z,50.01
2017-06-09T05:46:20.928Z,49.91
2017-06-09T05:48:02.081Z,49.24
2017-06-09T05:49:03.690Z,49.53
2017-06-09T05:50:05.295Z,49.24
2017-06-09T05:51:06.869Z,48.66
2017-06-09T05:52:08.510Z,49.05
2017-06-09T05:53:10.187Z,49.24
2017-06-09T05:54:11.830Z,49.24
2017-06-09T05:55:13.475Z,48.18
2017-06-09T05:56:15.061Z,49.15
2017-06-09T05:57:16.675Z,49.63
2017-06-09T05:58:18.364Z,49.73
2017-06-09T05:59:20.075Z,49.24
2017-06-09T06:00:21.703Z,49.53
2017-06-09T06:01:23.373Z,49.53
2017-06-09T06:02:25.049Z,49.73
2017-06-09T06:03:26.723Z,49.53
2017-06-09T06:04:28.348Z,49.63
2017-06-09T06:05:30.013Z,49.73
2017-06-09T06:06:32.761Z,49.82
2017-06-09T06:07:34.333Z,49.15
2017-06-09T06:08:36.045Z,49.63
2017-06-09T06:09:37.704Z,49.63
2017-06-09T06:11:18.871Z,49.73
2017-06-09T06:13:00.039Z,49.73
2017-06-09T06:14:01.671Z,49.91
2017-06-09T06:15:03.334Z,49.63
2017-06-09T06:16:04.986Z,49.73
2017-06-09T06:17:06.715Z,49.53
2017-06-09T06:18:08.366Z,49.91
2017-06-09T06:19:10.015Z,49.34
2017-06-09T06:20:11.705Z,49.53
2017-06-09T06:21:13.341Z,50.11
2017-06-09T06:22:15.054Z,49.73
2017-06-09T06:23:16.678Z,49.73
2017-06-09T06:24:18.333Z,49.63
2017-06-09T06:25:20.011Z,49.91
2017-06-09T06:26:21.659Z,50.30
2017-06-09T06:27:23.349Z,48.18
2017-06-09T06:28:24.951Z,50.88
2017-06-09T06:29:26.576Z,49.37
2017-06-09T06:30:28.193Z,49.75
2017-06-09T06:31:29.840Z,49.73
2017-06-09T06:32:31.533Z,50.21
2017-06-09T06:33:33.143Z,51.48
2017-06-09T06:34:34.767Z,52.35
2017-06-09T06:35:36.427Z,50.81
2017-06-09T06:36:38.122Z,52.45
2017-06-09T06:37:39.807Z,54.18
2017-06-09T06:38:41.473Z,52.45
2017-06-09T06:40:22.651Z,50.32
2017-06-09T06:41:24.287Z,50.32
2017-06-09T06:42:25.922Z,49.75
2017-06-09T06:43:27.544Z,49.65
2017-06-09T06:44:29.179Z,49.37
2017-06-09T06:45:30.867Z,49.46
2017-06-09T06:46:32.482Z,50.13
2017-06-09T06:47:34.098Z,50.13
2017-06-09T06:48:35.687Z,49.27
2017-06-09T06:49:37.305Z,48.40
2017-06-09T06:50:39.003Z,50.42
2017-06-09T06:51:40.607Z,49.65
2017-06-09T06:52:42.243Z,51.20
2017-06-09T06:53:43.861Z,51.20
2017-06-09T06:54:45.518Z,51.00
2017-06-09T06:55:47.191Z,50.81
2017-06-09T06:56:48.821Z,50.90
2017-06-09T06:57:50.415Z,51.20
2017-06-09T06:58:52.022Z,49.94
2017-06-09T06:59:53.627Z,50.32
2017-06-09T07:00:55.324Z,49.94
2017-06-09T07:01:56.986Z,50.71
2017-06-09T07:02:58.612Z,50.42
2017-06-09T07:04:00.216Z,50.81
2017-06-09T07:05:01.835Z,50.42
2017-06-09T07:06:03.537Z,51.20
2017-06-09T07:07:05.185Z,50.52
2017-06-09T07:08:06.806Z,51.48
2017-06-09T07:09:08.407Z,50.42
2017-06-09T07:10:10.021Z,50.52
2017-06-09T07:11:11.704Z,49.65
2017-06-09T07:12:13.361Z,50.81
2017-06-09T07:13:14.976Z,51.41
2017-06-09T07:14:16.613Z,50.54
2017-06-09T07:15:18.268Z,50.35
2017-06-09T07:16:19.929Z,50.26
2017-06-09T07:17:21.530Z,50.54
2017-06-09T07:18:23.141Z,48.61
2017-06-09T07:19:24.772Z,50.16
2017-06-09T07:20:26.412Z,49.29
2017-06-09T07:21:28.143Z,50.16
2017-06-09T07:23:09.342Z,50.06
2017-06-09T07:24:50.500Z,50.35
2017-06-09T07:25:52.105Z,49.77
2017-06-09T07:26:53.743Z,50.26
2017-06-09T07:27:55.387Z,50.45
2017-06-09T07:28:57.013Z,50.64
2017-06-09T07:29:58.700Z,50.06
2017-06-09T07:31:00.347Z,49.77
2017-06-09T07:32:41.533Z,49.68
2017-06-09T07:33:43.133Z,49.77
2017-06-09T07:34:44.788Z,49.58
2017-06-09T07:35:46.465Z,49.68
2017-06-09T07:36:48.219Z,50.06
2017-06-09T07:37:49.913Z,49.39
2017-06-09T07:38:51.608Z,50.06
2017-06-09T07:39:53.247Z,50.45
2017-06-09T07:40:54.907Z,50.06
2017-06-09T07:41:56.604Z,50.06
2017-06-09T07:42:58.407Z,49.87
2017-06-09T07:44:00.094Z,50.35
2017-06-09T07:45:01.734Z,50.06
2017-06-09T07:46:03.389Z,49.99
2017-06-09T07:47:05.038Z,50.06
2017-06-09T07:48:06.776Z,50.35
2017-06-09T07:49:08.443Z,50.35
2017-06-09T07:50:10.094Z,50.26
2017-06-09T07:51:11.792Z,50.06
2017-06-09T07:52:13.415Z,49.80
2017-06-09T07:53:15.140Z,50.06
2017-06-09T07:54:16.805Z,49.96
2017-06-09T07:55:18.507Z,49.80
2017-06-09T07:56:20.233Z,50.06
2017-06-09T07:57:21.966Z,49.77
2017-06-09T07:58:23.599Z,49.39
2017-06-09T07:59:25.249Z,49.70
2017-06-09T08:00:26.960Z,49.68
2017-06-09T08:01:28.706Z,49.48
2017-06-09T08:02:30.349Z,49.39
2017-06-09T08:03:32.089Z,49.51
2017-06-09T08:04:33.726Z,48.06
2017-06-09T08:05:35.369Z,48.54
2017-06-09T08:06:37.018Z,49.32
2017-06-09T08:07:38.608Z,49.12
2017-06-09T08:08:40.368Z,48.54
2017-06-09T08:09:42.006Z,48.35
2017-06-09T08:10:43.683Z,48.16
2017-06-09T08:11:45.314Z,48.54
2017-06-09T08:12:46.997Z,48.74
2017-06-09T08:13:48.682Z,48.25
2017-06-09T08:14:50.337Z,48.64
2017-06-09T08:15:52.157Z,48.83
2017-06-09T08:16:53.790Z,49.41
2017-06-09T08:17:55.414Z,48.44
2017-06-09T08:18:57.142Z,48.25
2017-06-09T08:19:58.825Z,49.32
2017-06-09T08:21:00.494Z,49.70
2017-06-09T08:22:02.164Z,49.51
2017-06-09T08:23:03.788Z,49.22
2017-06-09T08:24:45.062Z,48.44
2017-06-09T08:25:46.692Z,48.25
2017-06-09T08:26:48.349Z,49.22
2017-06-09T08:27:50.077Z,49.51
2017-06-09T08:28:51.798Z,49.12
2017-06-09T08:29:53.480Z,49.70
2017-06-09T08:30:55.149Z,48.93
2017-06-09T08:31:56.806Z,49.22
2017-06-09T08:32:58.452Z,48.93
2017-06-09T08:34:00.103Z,48.16
2017-06-09T08:35:01.752Z,49.02
2017-06-09T08:36:03.387Z,48.54
2017-06-09T08:37:44.576Z,49.32
2017-06-09T08:38:46.231Z,49.22
2017-06-09T08:39:47.865Z,48.74
2017-06-09T08:40:49.476Z,49.41
2017-06-09T08:41:51.161Z,49.51
2017-06-09T08:42:52.825Z,49.41
2017-06-09T08:43:54.424Z,48.35
2017-06-09T08:44:56.079Z,48.54
2017-06-09T08:45:57.682Z,48.93
2017-06-09T08:46:59.318Z,48.64
2017-06-09T08:48:01.012Z,48.74
2017-06-09T08:49:02.653Z,48.57
2017-06-09T08:50:04.264Z,48.66
2017-06-09T08:51:05.912Z,48.76
2017-06-09T08:52:07.548Z,48.08
2017-06-09T08:53:09.205Z,48.35
2017-06-09T08:54:10.826Z,48.25
2017-06-09T08:55:12.424Z,48.35
2017-06-09T08:56:14.047Z,48.35
2017-06-09T08:57:15.685Z,48.35
2017-06-09T08:58:17.411Z,48.57
2017-06-09T08:59:19.061Z,48.37
2017-06-09T09:00:20.725Z,48.57
2017-06-09T09:01:22.362Z,48.47
2017-06-09T09:02:24.008Z,48.28
2017-06-09T09:03:25.709Z,48.35
2017-06-09T09:04:27.320Z,48.25
2017-06-09T09:05:29.027Z,48.37
2017-06-09T09:06:30.631Z,48.54
2017-06-09T09:07:32.254Z,48.54
2017-06-09T09:08:33.999Z,48.54
2017-06-09T09:09:35.619Z,48.28
2017-06-09T09:10:37.256Z,48.37
2017-06-09T09:11:38.900Z,48.57
2017-06-09T09:12:40.503Z,48.54
2017-06-09T09:13:42.214Z,48.25
2017-06-09T09:14:43.854Z,48.08
2017-06-09T09:15:45.498Z,47.99
2017-06-09T09:16:47.167Z,48.37
2017-06-09T09:18:28.336Z,48.37
2017-06-09T09:19:29.984Z,47.99
2017-06-09T09:20:31.646Z,48.08
2017-06-09T09:21:33.300Z,47.80
2017-06-09T09:22:34.983Z,48.08
2017-06-09T09:23:36.648Z,48.08
2017-06-09T09:24:38.337Z,48.18
2017-06-09T09:25:40.031Z,47.80
2017-06-09T09:26:41.673Z,48.18
2017-06-09T09:27:43.338Z,47.89
2017-06-09T09:28:45.090Z,47.89
2017-06-09T09:29:46.794Z,48.47
2017-06-09T09:30:48.471Z,48.37
2017-06-09T09:31:50.161Z,48.37
2017-06-09T09:32:51.828Z,48.47
2017-06-09T09:33:53.503Z,48.08
2017-06-09T09:34:55.199Z,47.89
2017-06-09T09:35:56.870Z,47.89
2017-06-09T09:36:58.541Z,47.99
2017-06-09T09:38:00.209Z,48.37
2017-06-09T09:39:01.828Z,48.08
2017-06-09T09:40:03.546Z,47.80
2017-06-09T09:41:05.180Z,48.37
2017-06-09T09:42:06.803Z,47.89
2017-06-09T09:43:08.398Z,48.37
2017-06-09T09:44:10.122Z,48.47
2017-06-09T09:45:11.820Z,47.99
2017-06-09T09:46:13.456Z,47.89
2017-06-09T09:47:15.104Z,48.18
2017-06-09T09:48:16.832Z,48.08
2017-06-09T09:49:18.499Z,48.08
2017-06-09T09:50:20.228Z,47.80
2017-06-09T09:51:21.850Z,48.18
2017-06-09T09:52:23.459Z,48.66
2017-06-09T09:53:25.122Z,47.80
2017-06-09T09:54:26.783Z,47.99
2017-06-09T09:55:28.449Z,48.08
2017-06-09T09:56:30.072Z,47.89
2017-06-09T09:57:31.715Z,47.99
2017-06-09T09:58:34.223Z,47.89
2017-06-09T09:59:35.882Z,47.89
2017-06-09T10:00:37.521Z,47.80
2017-06-09T10:01:39.106Z,47.99
2017-06-09T10:02:40.705Z,47.89
2017-06-09T10:03:42.421Z,47.80
2017-06-09T10:04:44.040Z,47.70
2017-06-09T10:05:45.636Z,47.89
2017-06-09T10:06:47.278Z,47.60
2017-06-09T10:07:48.904Z,47.60
2017-06-09T10:08:50.563Z,47.60
2017-06-09T10:10:31.727Z,47.70
2017-06-09T10:11:33.469Z,47.89
2017-06-09T10:12:35.143Z,47.41
2017-06-09T10:13:36.799Z,47.80
2017-06-09T10:14:38.435Z,47.89
2017-06-09T10:15:40.061Z,47.89
2017-06-09T10:16:41.739Z,47.89
2017-06-09T10:17:43.424Z,47.99
2017-06-09T10:18:45.068Z,47.89
2017-06-09T10:19:46.703Z,48.37
2017-06-09T10:20:48.335Z,48.37
2017-06-09T10:21:49.987Z,47.80
2017-06-09T10:22:51.766Z,48.18
2017-06-09T10:23:53.476Z,48.08
2017-06-09T10:24:55.108Z,47.89
2017-06-09T10:25:56.736Z,47.89
2017-06-09T10:26:58.411Z,48.37
2017-06-09T10:28:00.070Z,48.28
2017-06-09T10:29:01.701Z,48.76
2017-06-09T10:30:03.356Z,48.66
2017-06-09T10:31:04.970Z,48.57
2017-06-09T10:32:06.622Z,48.47
2017-06-09T10:33:08.372Z,48.28
2017-06-09T10:34:10.020Z,48.28
2017-06-09T10:35:11.710Z,48.37
2017-06-09T10:36:13.345Z,48.25
2017-06-09T10:37:15.007Z,48.08
2017-06-09T10:38:16.701Z,48.28
2017-06-09T10:39:18.343Z,48.47
2017-06-09T10:40:19.982Z,48.66
2017-06-09T10:41:21.714Z,48.47
2017-06-09T10:42:23.388Z,48.47
2017-06-09T10:43:25.114Z,48.37
2017-06-09T10:44:26.752Z,48.44
2017-06-09T10:45:28.374Z,48.47
2017-06-09T10:46:30.004Z,48.37
2017-06-09T10:47:31.643Z,48.37
2017-06-09T10:48:33.321Z,48.54
2017-06-09T10:49:35.027Z,48.35
2017-06-09T10:50:36.668Z,48.37
2017-06-09T10:51:38.348Z,48.35
2017-06-09T10:52:39.984Z,48.25
2017-06-09T10:53:41.770Z,48.74
2017-06-09T10:54:43.453Z,48.54
2017-06-09T10:55:45.177Z,48.54
2017-06-09T10:56:46.958Z,48.64
2017-06-09T10:57:48.630Z,48.74
2017-06-09T10:58:50.350Z,48.93
2017-06-09T10:59:52.087Z,48.25
2017-06-09T11:00:53.836Z,49.51
2017-06-09T11:01:55.514Z,49.32
2017-06-09T11:02:57.209Z,49.32
2017-06-09T11:03:59.050Z,49.02
2017-06-09T11:05:00.825Z,49.51
2017-06-09T11:06:02.526Z,48.93
2017-06-09T11:07:04.258Z,49.41
2017-06-09T11:08:05.961Z,49.41
2017-06-09T11:09:07.764Z,49.22
2017-06-09T11:10:09.436Z,49.41
2017-06-09T11:11:11.104Z,49.51
2017-06-09T11:12:12.752Z,49.32
2017-06-09T11:13:14.459Z,49.80
2017-06-09T11:14:16.146Z,49.90
2017-06-09T11:15:17.799Z,49.51
2017-06-09T11:16:19.435Z,50.09
2017-06-09T11:17:21.052Z,49.80
2017-06-09T11:18:22.632Z,49.70
2017-06-09T11:19:24.308Z,49.80
2017-06-09T11:20:25.910Z,49.32
2017-06-09T11:21:27.523Z,49.32
2017-06-09T11:22:29.182Z,49.80
2017-06-09T11:23:30.781Z,49.22
2017-06-09T11:24:32.468Z,49.51
2017-06-09T11:25:34.148Z,49.90
2017-06-09T11:26:35.881Z,49.90
2017-06-09T11:27:37.527Z,49.51
2017-06-09T11:28:39.196Z,49.70
2017-06-09T11:29:40.843Z,49.80
2017-06-09T11:30:42.512Z,49.32
2017-06-09T11:31:44.235Z,49.99
2017-06-09T11:32:45.838Z,49.80
2017-06-09T11:33:47.500Z,49.60
2017-06-09T11:34:49.125Z,49.80
2017-06-09T11:35:50.782Z,49.90
2017-06-09T11:36:52.449Z,49.70
2017-06-09T11:37:54.111Z,49.70
2017-06-09T11:38:55.818Z,49.70
2017-06-09T11:39:57.500Z,49.70
2017-06-09T11:40:59.155Z,49.90
2017-06-09T11:42:00.765Z,50.47
2017-06-09T11:43:02.397Z,50.28
2017-06-09T11:44:04.016Z,50.09
2017-06-09T11:45:05.752Z,50.38
2017-06-09T11:46:07.365Z,50.09
2017-06-09T11:47:08.949Z,49.80
2017-06-09T11:48:10.558Z,50.35
2017-06-09T11:49:12.175Z,50.09
2017-06-09T11:50:13.897Z,50.26
2017-06-09T11:51:15.506Z,49.77
2017-06-09T11:52:17.109Z,49.77
2017-06-09T11:53:18.709Z,50.47
2017-06-09T11:54:59.877Z,50.26
2017-06-09T11:56:01.498Z,49.80
2017-06-09T11:57:03.117Z,50.09
2017-06-09T11:58:04.709Z,49.80
2017-06-09T11:59:06.300Z,49.99
2017-06-09T12:00:07.978Z,49.90
2017-06-09T12:01:09.599Z,49.80
2017-06-09T12:02:11.218Z,49.90
2017-06-09T12:03:12.820Z,49.70
2017-06-09T12:04:14.451Z,49.80
2017-06-09T12:05:16.079Z,49.80
2017-06-09T12:06:17.710Z,49.60
2017-06-09T12:07:19.342Z,49.70
2017-06-09T12:08:20.951Z,49.80
2017-06-09T12:09:22.570Z,49.90
2017-06-09T12:10:24.298Z,49.99
2017-06-09T12:11:25.975Z,49.90
2017-06-09T12:12:27.625Z,49.90
2017-06-09T12:13:29.284Z,49.90
2017-06-09T12:14:31.004Z,49.80
2017-06-09T12:15:32.712Z,49.80
2017-06-09T12:16:34.378Z,49.60
2017-06-09T12:17:36.067Z,49.80
2017-06-09T12:18:37.834Z,49.80
2017-06-09T12:19:39.487Z,49.99
2017-06-09T12:20:41.165Z,49.70
2017-06-09T12:21:42.929Z,49.90
2017-06-09T12:22:44.593Z,49.99
2017-06-09T12:23:46.326Z,49.51
2017-06-09T12:24:47.965Z,49.70
2017-06-09T12:25:49.622Z,49.60
2017-06-09T12:26:51.265Z,49.70
2017-06-09T12:27:52.884Z,49.80
2017-06-09T12:28:54.558Z,49.80
2017-06-09T12:29:56.207Z,49.90
2017-06-09T12:30:57.836Z,49.99
2017-06-09T12:31:59.648Z,51.05
2017-06-09T12:33:01.269Z,51.25
2017-06-09T12:34:02.939Z,51.73
2017-06-09T12:35:04.568Z,51.92
2017-06-09T12:36:06.274Z,52.21
2017-06-09T12:37:08.086Z,52.11
2017-06-09T12:38:09.732Z,51.44
2017-06-09T12:39:11.344Z,51.34
2017-06-09T12:40:13.022Z,51.34
2017-06-09T12:41:14.661Z,50.96
2017-06-09T12:42:16.350Z,51.05
2017-06-09T12:43:17.998Z,51.05
2017-06-09T12:44:19.648Z,50.57
2017-06-09T12:45:21.300Z,50.47
2017-06-09T12:47:02.490Z,50.09
2017-06-09T12:48:04.161Z,50.57
2017-06-09T12:49:05.835Z,51.34
2017-06-09T12:50:07.399Z,50.57
2017-06-09T12:51:09.039Z,50.76
2017-06-09T12:52:10.719Z,49.80
2017-06-09T12:53:12.395Z,50.57
2017-06-09T12:54:14.017Z,50.47
2017-06-09T12:55:15.661Z,51.25
2017-06-09T12:56:17.301Z,51.25
2017-06-09T12:57:19.011Z,50.86
2017-06-09T12:58:20.620Z,50.09
2017-06-09T12:59:22.226Z,51.53
2017-06-09T13:00:23.836Z,51.25
2017-06-09T13:01:25.517Z,50.89
2017-06-09T13:02:27.206Z,51.15
2017-06-09T13:03:28.848Z,50.96
2017-06-09T13:04:30.495Z,51.05
2017-06-09T13:05:32.098Z,50.79
2017-06-09T13:06:33.720Z,50.21
2017-06-09T13:07:35.382Z,50.21
2017-06-09T13:08:37.101Z,49.92
2017-06-09T13:09:38.755Z,50.01
2017-06-09T13:10:40.402Z,49.82
2017-06-09T13:11:42.015Z,49.92
2017-06-09T13:12:43.700Z,50.01
2017-06-09T13:13:45.377Z,49.63
2017-06-09T13:14:46.999Z,49.63
2017-06-09T13:15:48.633Z,49.53
2017-06-09T13:16:50.229Z,49.34
2017-06-09T13:17:51.867Z,49.73
2017-06-09T13:18:53.586Z,49.82
2017-06-09T13:19:55.215Z,49.44
2017-06-09T13:20:56.814Z,49.63
2017-06-09T13:21:58.457Z,49.34
2017-06-09T13:23:00.193Z,49.92
2017-06-09T13:24:01.898Z,49.92
2017-06-09T13:25:03.604Z,49.82
2017-06-09T13:26:05.226Z,49.73
2017-06-09T13:27:06.878Z,49.53
2017-06-09T13:28:08.505Z,49.92